sensor_id;sensor_type;location;lat;lon;timestamp;temperature;humidity
48988;DHT22;34799;51.440;-2.534;2023-04-19T00:00:49;9.40;99.90
48988;DHT22;34799;51.440;-2.534;2023-04-19T00:03:16;10.00;99.90
48988;DHT22;34799;51.440;-2.534;2023-04-19T00:05:43;9.40;99.90
48988;DHT22;34799;51.440;-2.534;2023-04-19T00:08:10;10.30;99.90
48988;DHT22;34799;51.440;-2.534;2023-04-19T00:10:39;9.50;99.90
48988;DHT22;34799;51.440;-2.534;2023-04-19T00:13:06;9.50;99.90
48988;DHT22;34799;51.440;-2.534;2023-04-19T00:15:33;9.50;99.90
48988;DHT22;34799;51.440;-2.534;2023-04-19T00:18:00;9.50;99.90
48988;DHT22;34799;51.440;-2.534;2023-04-19T00:20:28;10.00;99.90
48988;DHT22;34799;51.440;-2.534;2023-04-19T00:22:54;9.50;99.90
48988;DHT22;34799;51.440;-2.534;2023-04-19T00:25:25;9.60;99.90
48988;DHT22;34799;51.440;-2.534;2023-04-19T00:27:52;9.60;99.90
48988;DHT22;34799;51.440;-2.534;2023-04-19T00:30:19;9.60;99.90
48988;DHT22;34799;51.440;-2.534;2023-04-19T00:32:47;10.20;99.90
48988;DHT22;34799;51.440;-2.534;2023-04-19T00:35:15;9.60;99.90
48988;DHT22;34799;51.440;-2.534;2023-04-19T00:37:42;9.60;99.90
48988;DHT22;34799;51.440;-2.534;2023-04-19T00:40:12;9.70;99.90
48988;DHT22;34799;51.440;-2.534;2023-04-19T00:42:39;10.50;99.90
48988;DHT22;34799;51.440;-2.534;2023-04-19T00:45:07;9.60;99.90
48988;DHT22;34799;51.440;-2.534;2023-04-19T00:47:35;9.60;99.90
48988;DHT22;34799;51.440;-2.534;2023-04-19T00:50:03;9.60;99.90
48988;DHT22;34799;51.440;-2.534;2023-04-19T00:52:32;9.60;99.90
48988;DHT22;34799;51.440;-2.534;2023-04-19T00:55:00;10.00;99.90
48988;DHT22;34799;51.440;-2.534;2023-04-19T00:57:28;9.50;99.90
48988;DHT22;34799;51.440;-2.534;2023-04-19T00:59:56;9.40;99.90
48988;DHT22;34799;51.440;-2.534;2023-04-19T01:02:25;9.70;99.90
48988;DHT22;34799;51.440;-2.534;2023-04-19T01:04:54;9.40;99.90
48988;DHT22;34799;51.440;-2.534;2023-04-19T01:07:21;9.40;99.90
48988;DHT22;34799;51.440;-2.534;2023-04-19T01:09:48;9.40;99.90
48988;DHT22;34799;51.440;-2.534;2023-04-19T01:12:15;9.40;99.90
48988;DHT22;34799;51.440;-2.534;2023-04-19T01:14:42;9.50;99.90
48988;DHT22;34799;51.440;-2.534;2023-04-19T01:17:11;9.30;99.90
48988;DHT22;34799;51.440;-2.534;2023-04-19T01:19:41;9.40;99.90
48988;DHT22;34799;51.440;-2.534;2023-04-19T01:22:08;9.50;99.90
48988;DHT22;34799;51.440;-2.534;2023-04-19T01:24:35;10.10;99.90
48988;DHT22;34799;51.440;-2.534;2023-04-19T01:27:02;9.40;99.90
48988;DHT22;34799;51.440;-2.534;2023-04-19T01:29:31;9.40;99.90
48988;DHT22;34799;51.440;-2.534;2023-04-19T01:31:58;9.40;99.90
48988;DHT22;34799;51.440;-2.534;2023-04-19T01:34:26;9.30;99.90
48988;DHT22;34799;51.440;-2.534;2023-04-19T01:36:53;9.90;99.90
48988;DHT22;34799;51.440;-2.534;2023-04-19T01:39:20;9.30;99.90
48988;DHT22;34799;51.440;-2.534;2023-04-19T01:41:47;9.30;99.90
48988;DHT22;34799;51.440;-2.534;2023-04-19T01:44:14;9.40;99.90
48988;DHT22;34799;51.440;-2.534;2023-04-19T01:46:43;9.40;99.90
48988;DHT22;34799;51.440;-2.534;2023-04-19T01:49:11;9.30;99.90
48988;DHT22;34799;51.440;-2.534;2023-04-19T01:51:38;9.90;99.90
48988;DHT22;34799;51.440;-2.534;2023-04-19T01:54:05;10.10;99.90
48988;DHT22;34799;51.440;-2.534;2023-04-19T01:56:32;9.50;99.90
48988;DHT22;34799;51.440;-2.534;2023-04-19T01:59:00;9.20;99.90
48988;DHT22;34799;51.440;-2.534;2023-04-19T02:01:29;9.30;99.90
48988;DHT22;34799;51.440;-2.534;2023-04-19T02:03:57;9.20;99.90
48988;DHT22;34799;51.440;-2.534;2023-04-19T02:06:25;9.10;99.90
48988;DHT22;34799;51.440;-2.534;2023-04-19T02:08:52;9.10;99.90
48988;DHT22;34799;51.440;-2.534;2023-04-19T02:11:19;9.10;99.90
48988;DHT22;34799;51.440;-2.534;2023-04-19T02:13:46;9.10;99.90
48988;DHT22;34799;51.440;-2.534;2023-04-19T02:16:15;9.10;99.90
48988;DHT22;34799;51.440;-2.534;2023-04-19T02:18:42;9.40;99.90
48988;DHT22;34799;51.440;-2.534;2023-04-19T02:21:10;9.10;99.90
48988;DHT22;34799;51.440;-2.534;2023-04-19T02:23:37;9.20;99.90
48988;DHT22;34799;51.440;-2.534;2023-04-19T02:26:04;9.10;99.90
48988;DHT22;34799;51.440;-2.534;2023-04-19T02:28:31;9.70;99.90
48988;DHT22;34799;51.440;-2.534;2023-04-19T02:31:03;9.20;99.90
48988;DHT22;34799;51.440;-2.534;2023-04-19T02:33:33;9.70;99.90
48988;DHT22;34799;51.440;-2.534;2023-04-19T02:36:01;9.20;99.90
48988;DHT22;34799;51.440;-2.534;2023-04-19T02:38:29;9.80;99.90
48988;DHT22;34799;51.440;-2.534;2023-04-19T02:40:56;9.20;99.90
48988;DHT22;34799;51.440;-2.534;2023-04-19T02:43:23;9.30;99.90
48988;DHT22;34799;51.440;-2.534;2023-04-19T02:45:50;8.40;99.90
48988;DHT22;34799;51.440;-2.534;2023-04-19T02:48:20;9.30;99.90
48988;DHT22;34799;51.440;-2.534;2023-04-19T02:50:49;9.30;99.90
48988;DHT22;34799;51.440;-2.534;2023-04-19T02:53:16;9.40;99.90
48988;DHT22;34799;51.440;-2.534;2023-04-19T02:55:43;10.10;99.90
48988;DHT22;34799;51.440;-2.534;2023-04-19T02:58:16;9.30;99.90
48988;DHT22;34799;51.440;-2.534;2023-04-19T03:00:55;9.40;99.90
48988;DHT22;34799;51.440;-2.534;2023-04-19T03:03:22;9.40;99.90
48988;DHT22;34799;51.440;-2.534;2023-04-19T03:05:49;10.30;99.90
48988;DHT22;34799;51.440;-2.534;2023-04-19T03:08:17;9.30;99.90
48988;DHT22;34799;51.440;-2.534;2023-04-19T03:10:45;9.30;99.90
48988;DHT22;34799;51.440;-2.534;2023-04-19T03:13:12;9.40;99.90
48988;DHT22;34799;51.440;-2.534;2023-04-19T03:15:39;9.40;99.90
48988;DHT22;34799;51.440;-2.534;2023-04-19T03:18:07;9.60;99.90
48988;DHT22;34799;51.440;-2.534;2023-04-19T03:20:36;9.40;99.90
48988;DHT22;34799;51.440;-2.534;2023-04-19T03:23:05;9.30;99.90
48988;DHT22;34799;51.440;-2.534;2023-04-19T03:25:33;9.30;99.90
48988;DHT22;34799;51.440;-2.534;2023-04-19T03:28:16;9.30;99.90
48988;DHT22;34799;51.440;-2.534;2023-04-19T03:33:29;9.20;99.90
48988;DHT22;34799;51.440;-2.534;2023-04-19T03:35:56;9.20;99.90
48988;DHT22;34799;51.440;-2.534;2023-04-19T03:38:23;9.20;99.90
48988;DHT22;34799;51.440;-2.534;2023-04-19T03:40:51;9.20;99.90
48988;DHT22;34799;51.440;-2.534;2023-04-19T03:43:20;9.20;99.90
48988;DHT22;34799;51.440;-2.534;2023-04-19T03:45:48;9.20;99.90
48988;DHT22;34799;51.440;-2.534;2023-04-19T03:48:15;9.20;99.90
48988;DHT22;34799;51.440;-2.534;2023-04-19T03:50:42;9.20;99.90
48988;DHT22;34799;51.440;-2.534;2023-04-19T03:53:14;9.10;99.90
48988;DHT22;34799;51.440;-2.534;2023-04-19T03:55:41;9.10;99.90
48988;DHT22;34799;51.440;-2.534;2023-04-19T03:58:08;9.00;99.90
48988;DHT22;34799;51.440;-2.534;2023-04-19T04:00:45;8.90;99.90
48988;DHT22;34799;51.440;-2.534;2023-04-19T04:03:13;8.90;99.90
48988;DHT22;34799;51.440;-2.534;2023-04-19T04:05:40;10.80;99.90
48988;DHT22;34799;51.440;-2.534;2023-04-19T04:08:09;9.20;99.90
48988;DHT22;34799;51.440;-2.534;2023-04-19T04:10:37;8.90;99.90
48988;DHT22;34799;51.440;-2.534;2023-04-19T04:13:04;8.90;99.90
48988;DHT22;34799;51.440;-2.534;2023-04-19T04:15:43;8.90;99.90
48988;DHT22;34799;51.440;-2.534;2023-04-19T04:18:12;8.90;99.90
48988;DHT22;34799;51.440;-2.534;2023-04-19T04:20:42;8.90;99.90
48988;DHT22;34799;51.440;-2.534;2023-04-19T04:23:10;8.90;99.90
48988;DHT22;34799;51.440;-2.534;2023-04-19T04:25:42;8.90;99.90
48988;DHT22;34799;51.440;-2.534;2023-04-19T04:28:12;8.90;99.90
48988;DHT22;34799;51.440;-2.534;2023-04-19T04:30:41;8.90;99.90
48988;DHT22;34799;51.440;-2.534;2023-04-19T04:33:10;8.90;99.90
48988;DHT22;34799;51.440;-2.534;2023-04-19T04:35:39;10.10;99.90
48988;DHT22;34799;51.440;-2.534;2023-04-19T04:38:14;8.80;99.90
48988;DHT22;34799;51.440;-2.534;2023-04-19T04:40:52;8.80;99.90
48988;DHT22;34799;51.440;-2.534;2023-04-19T04:43:23;8.80;99.90
48988;DHT22;34799;51.440;-2.534;2023-04-19T04:45:51;9.40;99.90
48988;DHT22;34799;51.440;-2.534;2023-04-19T04:48:22;8.90;99.90
48988;DHT22;34799;51.440;-2.534;2023-04-19T04:50:49;8.90;99.90
48988;DHT22;34799;51.440;-2.534;2023-04-19T04:53:17;8.80;99.90
48988;DHT22;34799;51.440;-2.534;2023-04-19T04:55:45;8.90;99.90
48988;DHT22;34799;51.440;-2.534;2023-04-19T04:58:14;9.00;99.90
48988;DHT22;34799;51.440;-2.534;2023-04-19T05:00:57;8.80;99.90
48988;DHT22;34799;51.440;-2.534;2023-04-19T05:03:26;8.80;99.90
48988;DHT22;34799;51.440;-2.534;2023-04-19T05:05:57;8.70;99.90
48988;DHT22;34799;51.440;-2.534;2023-04-19T05:08:25;9.10;99.90
48988;DHT22;34799;51.440;-2.534;2023-04-19T05:10:58;8.70;99.90
48988;DHT22;34799;51.440;-2.534;2023-04-19T05:13:29;8.60;99.90
48988;DHT22;34799;51.440;-2.534;2023-04-19T05:15:57;8.60;99.90
48988;DHT22;34799;51.440;-2.534;2023-04-19T05:18:24;8.60;99.90
48988;DHT22;34799;51.440;-2.534;2023-04-19T05:20:52;9.60;99.90
48988;DHT22;34799;51.440;-2.534;2023-04-19T05:23:23;8.60;99.90
48988;DHT22;34799;51.440;-2.534;2023-04-19T05:25:51;8.60;99.90
48988;DHT22;34799;51.440;-2.534;2023-04-19T05:28:20;8.60;99.90
48988;DHT22;34799;51.440;-2.534;2023-04-19T05:31:05;8.60;99.90
48988;DHT22;34799;51.440;-2.534;2023-04-19T05:33:40;8.60;99.90
48988;DHT22;34799;51.440;-2.534;2023-04-19T05:36:09;8.70;99.90
48988;DHT22;34799;51.440;-2.534;2023-04-19T05:38:37;8.70;99.90
48988;DHT22;34799;51.440;-2.534;2023-04-19T05:41:05;8.70;99.90
48988;DHT22;34799;51.440;-2.534;2023-04-19T05:43:33;8.80;99.90
48988;DHT22;34799;51.440;-2.534;2023-04-19T05:46:01;8.80;99.90
48988;DHT22;34799;51.440;-2.534;2023-04-19T05:48:29;8.80;99.90
48988;DHT22;34799;51.440;-2.534;2023-04-19T05:51:06;8.80;99.90
48988;DHT22;34799;51.440;-2.534;2023-04-19T05:53:52;8.80;99.90
48988;DHT22;34799;51.440;-2.534;2023-04-19T05:56:20;9.00;99.90
48988;DHT22;34799;51.440;-2.534;2023-04-19T05:58:47;9.70;99.90
48988;DHT22;34799;51.440;-2.534;2023-04-19T06:01:14;8.90;99.90
48988;DHT22;34799;51.440;-2.534;2023-04-19T06:03:43;9.70;99.90
48988;DHT22;34799;51.440;-2.534;2023-04-19T06:06:10;9.00;99.90
48988;DHT22;34799;51.440;-2.534;2023-04-19T06:08:37;9.00;99.90
48988;DHT22;34799;51.440;-2.534;2023-04-19T06:11:04;9.60;99.90
48988;DHT22;34799;51.440;-2.534;2023-04-19T06:13:37;9.20;99.90
48988;DHT22;34799;51.440;-2.534;2023-04-19T06:16:05;9.10;99.90
48988;DHT22;34799;51.440;-2.534;2023-04-19T06:18:32;9.20;99.90
48988;DHT22;34799;51.440;-2.534;2023-04-19T06:20:59;9.20;99.90
48988;DHT22;34799;51.440;-2.534;2023-04-19T06:23:26;9.10;99.90
48988;DHT22;34799;51.440;-2.534;2023-04-19T06:25:53;9.10;99.90
48988;DHT22;34799;51.440;-2.534;2023-04-19T06:28:20;9.60;99.90
48988;DHT22;34799;51.440;-2.534;2023-04-19T06:30:47;9.20;99.90
48988;DHT22;34799;51.440;-2.534;2023-04-19T06:33:15;9.10;99.90
48988;DHT22;34799;51.440;-2.534;2023-04-19T06:35:43;9.10;99.90
48988;DHT22;34799;51.440;-2.534;2023-04-19T06:38:10;9.10;99.90
48988;DHT22;34799;51.440;-2.534;2023-04-19T06:40:36;9.70;99.90
48988;DHT22;34799;51.440;-2.534;2023-04-19T06:43:04;9.10;99.90
48988;DHT22;34799;51.440;-2.534;2023-04-19T06:45:31;9.80;99.90
48988;DHT22;34799;51.440;-2.534;2023-04-19T06:47:58;9.10;99.90
48988;DHT22;34799;51.440;-2.534;2023-04-19T06:50:25;9.10;99.90
48988;DHT22;34799;51.440;-2.534;2023-04-19T06:52:54;9.10;99.90
48988;DHT22;34799;51.440;-2.534;2023-04-19T06:55:21;9.20;99.90
48988;DHT22;34799;51.440;-2.534;2023-04-19T06:57:48;9.10;99.90
48988;DHT22;34799;51.440;-2.534;2023-04-19T07:00:15;9.10;99.90
48988;DHT22;34799;51.440;-2.534;2023-04-19T07:02:42;9.20;99.90
48988;DHT22;34799;51.440;-2.534;2023-04-19T07:05:09;10.00;99.90
48988;DHT22;34799;51.440;-2.534;2023-04-19T07:07:40;9.50;99.90
48988;DHT22;34799;51.440;-2.534;2023-04-19T07:10:08;9.30;99.90
48988;DHT22;34799;51.440;-2.534;2023-04-19T07:12:35;9.30;99.90
48988;DHT22;34799;51.440;-2.534;2023-04-19T07:15:02;9.40;99.90
48988;DHT22;34799;51.440;-2.534;2023-04-19T07:17:29;9.50;99.90
48988;DHT22;34799;51.440;-2.534;2023-04-19T07:19:56;10.60;99.90
48988;DHT22;34799;51.440;-2.534;2023-04-19T07:22:23;9.60;99.90
48988;DHT22;34799;51.440;-2.534;2023-04-19T07:24:53;9.90;99.90
48988;DHT22;34799;51.440;-2.534;2023-04-19T07:27:20;9.90;99.90
48988;DHT22;34799;51.440;-2.534;2023-04-19T07:29:47;9.70;99.90
48988;DHT22;34799;51.440;-2.534;2023-04-19T07:32:14;9.70;99.90
48988;DHT22;34799;51.440;-2.534;2023-04-19T07:34:41;10.00;99.90
48988;DHT22;34799;51.440;-2.534;2023-04-19T07:37:09;9.90;99.90
48988;DHT22;34799;51.440;-2.534;2023-04-19T07:39:38;10.40;99.90
48988;DHT22;34799;51.440;-2.534;2023-04-19T07:42:05;9.80;99.90
48988;DHT22;34799;51.440;-2.534;2023-04-19T07:44:32;9.80;99.90
48988;DHT22;34799;51.440;-2.534;2023-04-19T07:46:59;9.80;99.90
48988;DHT22;34799;51.440;-2.534;2023-04-19T07:49:26;9.90;99.90
48988;DHT22;34799;51.440;-2.534;2023-04-19T07:51:55;10.00;99.90
48988;DHT22;34799;51.440;-2.534;2023-04-19T07:54:23;10.60;99.90
48988;DHT22;34799;51.440;-2.534;2023-04-19T07:56:51;10.00;99.90
48988;DHT22;34799;51.440;-2.534;2023-04-19T07:59:18;10.70;99.90
48988;DHT22;34799;51.440;-2.534;2023-04-19T08:01:45;10.10;99.90
48988;DHT22;34799;51.440;-2.534;2023-04-19T08:04:12;10.10;99.90
48988;DHT22;34799;51.440;-2.534;2023-04-19T08:06:39;10.00;99.90
48988;DHT22;34799;51.440;-2.534;2023-04-19T08:09:06;10.70;99.90
48988;DHT22;34799;51.440;-2.534;2023-04-19T08:11:33;10.10;99.90
48988;DHT22;34799;51.440;-2.534;2023-04-19T08:14:02;10.10;99.90
48988;DHT22;34799;51.440;-2.534;2023-04-19T08:16:35;10.10;99.90
48988;DHT22;34799;51.440;-2.534;2023-04-19T08:19:05;10.80;99.90
48988;DHT22;34799;51.440;-2.534;2023-04-19T08:21:32;11.70;99.90
48988;DHT22;34799;51.440;-2.534;2023-04-19T08:24:06;10.30;99.90
48988;DHT22;34799;51.440;-2.534;2023-04-19T08:26:33;10.40;99.90
48988;DHT22;34799;51.440;-2.534;2023-04-19T08:29:00;11.00;99.90
48988;DHT22;34799;51.440;-2.534;2023-04-19T08:31:27;11.10;99.90
48988;DHT22;34799;51.440;-2.534;2023-04-19T08:33:54;10.30;99.90
48988;DHT22;34799;51.440;-2.534;2023-04-19T08:36:21;10.50;99.90
48988;DHT22;34799;51.440;-2.534;2023-04-19T08:38:54;10.40;99.90
48988;DHT22;34799;51.440;-2.534;2023-04-19T08:41:29;10.50;99.90
48988;DHT22;34799;51.440;-2.534;2023-04-19T08:43:57;10.60;99.90
48988;DHT22;34799;51.440;-2.534;2023-04-19T08:46:25;11.20;99.90
48988;DHT22;34799;51.440;-2.534;2023-04-19T08:48:54;10.80;99.90
48988;DHT22;34799;51.440;-2.534;2023-04-19T08:51:22;10.50;99.90
48988;DHT22;34799;51.440;-2.534;2023-04-19T08:53:50;10.60;99.90
48988;DHT22;34799;51.440;-2.534;2023-04-19T08:56:18;10.70;99.90
48988;DHT22;34799;51.440;-2.534;2023-04-19T08:58:53;10.90;99.90
48988;DHT22;34799;51.440;-2.534;2023-04-19T09:01:26;10.90;99.90
48988;DHT22;34799;51.440;-2.534;2023-04-19T09:04:00;11.00;99.90
48988;DHT22;34799;51.440;-2.534;2023-04-19T09:06:36;11.10;99.90
48988;DHT22;34799;51.440;-2.534;2023-04-19T09:09:21;11.30;99.90
48988;DHT22;34799;51.440;-2.534;2023-04-19T09:11:52;11.20;99.90
48988;DHT22;34799;51.440;-2.534;2023-04-19T09:14:21;11.20;99.90
48988;DHT22;34799;51.440;-2.534;2023-04-19T09:16:48;11.20;99.90
48988;DHT22;34799;51.440;-2.534;2023-04-19T09:19:17;11.30;99.90
48988;DHT22;34799;51.440;-2.534;2023-04-19T09:21:48;11.20;99.90
48988;DHT22;34799;51.440;-2.534;2023-04-19T09:24:17;11.20;99.90
48988;DHT22;34799;51.440;-2.534;2023-04-19T09:26:54;11.40;99.90
48988;DHT22;34799;51.440;-2.534;2023-04-19T09:29:23;11.60;99.90
48988;DHT22;34799;51.440;-2.534;2023-04-19T09:31:58;11.30;99.90
48988;DHT22;34799;51.440;-2.534;2023-04-19T09:34:25;11.40;99.90
48988;DHT22;34799;51.440;-2.534;2023-04-19T09:36:55;11.40;99.90
48988;DHT22;34799;51.440;-2.534;2023-04-19T09:39:32;11.40;99.90
48988;DHT22;34799;51.440;-2.534;2023-04-19T09:42:01;11.50;99.90
48988;DHT22;34799;51.440;-2.534;2023-04-19T09:44:28;11.90;99.90
48988;DHT22;34799;51.440;-2.534;2023-04-19T09:46:59;11.60;99.90
48988;DHT22;34799;51.440;-2.534;2023-04-19T09:49:28;11.50;99.90
48988;DHT22;34799;51.440;-2.534;2023-04-19T09:52:04;11.60;99.90
48988;DHT22;34799;51.440;-2.534;2023-04-19T09:54:31;12.20;99.90
48988;DHT22;34799;51.440;-2.534;2023-04-19T09:57:00;11.70;99.90
48988;DHT22;34799;51.440;-2.534;2023-04-19T09:59:27;11.70;99.90
48988;DHT22;34799;51.440;-2.534;2023-04-19T10:01:55;12.10;99.90
48988;DHT22;34799;51.440;-2.534;2023-04-19T10:04:23;11.90;99.90
48988;DHT22;34799;51.440;-2.534;2023-04-19T10:06:58;12.00;99.90
48988;DHT22;34799;51.440;-2.534;2023-04-19T10:09:46;12.10;99.90
48988;DHT22;34799;51.440;-2.534;2023-04-19T10:12:19;12.10;99.90
48988;DHT22;34799;51.440;-2.534;2023-04-19T10:15:05;12.20;99.90
48988;DHT22;34799;51.440;-2.534;2023-04-19T10:17:33;12.20;99.90
48988;DHT22;34799;51.440;-2.534;2023-04-19T10:20:06;12.30;99.90
48988;DHT22;34799;51.440;-2.534;2023-04-19T10:22:35;12.40;99.90
48988;DHT22;34799;51.440;-2.534;2023-04-19T10:25:10;12.50;99.90
48988;DHT22;34799;51.440;-2.534;2023-04-19T10:27:37;12.60;99.90
48988;DHT22;34799;51.440;-2.534;2023-04-19T10:30:09;12.70;99.90
48988;DHT22;34799;51.440;-2.534;2023-04-19T10:32:43;12.90;99.90
48988;DHT22;34799;51.440;-2.534;2023-04-19T10:35:22;13.00;99.90
48988;DHT22;34799;51.440;-2.534;2023-04-19T10:41:00;13.00;99.90
48988;DHT22;34799;51.440;-2.534;2023-04-19T10:43:31;12.90;99.90
48988;DHT22;34799;51.440;-2.534;2023-04-19T10:46:14;13.00;99.90
48988;DHT22;34799;51.440;-2.534;2023-04-19T10:48:55;13.00;99.90
48988;DHT22;34799;51.440;-2.534;2023-04-19T10:51:31;13.10;99.90
48988;DHT22;34799;51.440;-2.534;2023-04-19T10:54:04;13.40;99.90
48988;DHT22;34799;51.440;-2.534;2023-04-19T11:04:06;13.70;99.90
48988;DHT22;34799;51.440;-2.534;2023-04-19T11:06:34;13.80;99.90
48988;DHT22;34799;51.440;-2.534;2023-04-19T11:09:01;13.90;99.90
48988;DHT22;34799;51.440;-2.534;2023-04-19T11:11:34;14.00;99.90
48988;DHT22;34799;51.440;-2.534;2023-04-19T11:14:07;14.10;99.90
48988;DHT22;34799;51.440;-2.534;2023-04-19T11:16:35;14.30;99.90
48988;DHT22;34799;51.440;-2.534;2023-04-19T11:19:17;14.30;99.90
48988;DHT22;34799;51.440;-2.534;2023-04-19T11:21:45;14.40;99.90
48988;DHT22;34799;51.440;-2.534;2023-04-19T11:24:12;14.40;99.90
48988;DHT22;34799;51.440;-2.534;2023-04-19T11:26:44;14.50;99.90
48988;DHT22;34799;51.440;-2.534;2023-04-19T11:29:14;14.60;99.90
48988;DHT22;34799;51.440;-2.534;2023-04-19T11:31:45;14.60;99.90
48988;DHT22;34799;51.440;-2.534;2023-04-19T11:34:12;14.50;99.90
48988;DHT22;34799;51.440;-2.534;2023-04-19T11:36:52;14.30;99.90
48988;DHT22;34799;51.440;-2.534;2023-04-19T11:39:21;14.20;99.90
48988;DHT22;34799;51.440;-2.534;2023-04-19T11:41:48;14.20;99.90
48988;DHT22;34799;51.440;-2.534;2023-04-19T11:44:18;14.30;99.90
48988;DHT22;34799;51.440;-2.534;2023-04-19T11:46:59;14.20;99.90
48988;DHT22;34799;51.440;-2.534;2023-04-19T11:49:28;14.10;99.90
48988;DHT22;34799;51.440;-2.534;2023-04-19T11:52:00;14.20;99.90
48988;DHT22;34799;51.440;-2.534;2023-04-19T11:54:29;14.10;99.90
48988;DHT22;34799;51.440;-2.534;2023-04-19T11:57:05;14.20;99.90
48988;DHT22;34799;51.440;-2.534;2023-04-19T11:59:34;14.40;99.90
48988;DHT22;34799;51.440;-2.534;2023-04-19T12:02:06;14.60;99.90
48988;DHT22;34799;51.440;-2.534;2023-04-19T12:04:33;14.70;99.90
48988;DHT22;34799;51.440;-2.534;2023-04-19T12:07:02;14.80;99.90
48988;DHT22;34799;51.440;-2.534;2023-04-19T12:09:34;14.90;99.90
48988;DHT22;34799;51.440;-2.534;2023-04-19T12:12:02;14.90;99.90
48988;DHT22;34799;51.440;-2.534;2023-04-19T12:14:31;14.80;99.90
48988;DHT22;34799;51.440;-2.534;2023-04-19T12:17:10;14.80;99.90
48988;DHT22;34799;51.440;-2.534;2023-04-19T12:19:42;14.90;99.90
48988;DHT22;34799;51.440;-2.534;2023-04-19T12:22:15;15.10;99.90
48988;DHT22;34799;51.440;-2.534;2023-04-19T12:24:45;15.50;99.90
48988;DHT22;34799;51.440;-2.534;2023-04-19T12:27:16;15.90;99.90
48988;DHT22;34799;51.440;-2.534;2023-04-19T12:29:44;15.90;99.90
48988;DHT22;34799;51.440;-2.534;2023-04-19T12:32:12;15.90;99.90
48988;DHT22;34799;51.440;-2.534;2023-04-19T12:34:41;15.80;99.90
48988;DHT22;34799;51.440;-2.534;2023-04-19T12:37:08;15.80;99.90
48988;DHT22;34799;51.440;-2.534;2023-04-19T12:39:35;15.70;99.90
48988;DHT22;34799;51.440;-2.534;2023-04-19T12:42:04;15.70;99.90
48988;DHT22;34799;51.440;-2.534;2023-04-19T12:44:32;15.70;99.90
48988;DHT22;34799;51.440;-2.534;2023-04-19T12:46:59;15.60;99.90
48988;DHT22;34799;51.440;-2.534;2023-04-19T12:49:25;15.60;99.90
48988;DHT22;34799;51.440;-2.534;2023-04-19T12:51:53;14.10;99.90
48988;DHT22;34799;51.440;-2.534;2023-04-19T12:54:21;15.70;99.90
48988;DHT22;34799;51.440;-2.534;2023-04-19T12:56:50;15.80;99.90
48988;DHT22;34799;51.440;-2.534;2023-04-19T12:59:18;15.90;99.90
48988;DHT22;34799;51.440;-2.534;2023-04-19T13:01:45;16.00;99.90
48988;DHT22;34799;51.440;-2.534;2023-04-19T13:04:12;16.10;99.90
48988;DHT22;34799;51.440;-2.534;2023-04-19T13:06:39;16.10;99.90
48988;DHT22;34799;51.440;-2.534;2023-04-19T13:09:06;16.10;99.90
48988;DHT22;34799;51.440;-2.534;2023-04-19T13:11:39;15.90;99.90
48988;DHT22;34799;51.440;-2.534;2023-04-19T13:14:06;15.80;99.90
48988;DHT22;34799;51.440;-2.534;2023-04-19T13:16:34;16.00;99.90
48988;DHT22;34799;51.440;-2.534;2023-04-19T13:19:01;16.20;99.90
48988;DHT22;34799;51.440;-2.534;2023-04-19T13:21:28;16.50;99.90
48988;DHT22;34799;51.440;-2.534;2023-04-19T13:23:57;16.50;99.90
48988;DHT22;34799;51.440;-2.534;2023-04-19T13:26:25;16.50;99.90
48988;DHT22;34799;51.440;-2.534;2023-04-19T13:28:52;16.50;99.90
48988;DHT22;34799;51.440;-2.534;2023-04-19T13:31:19;16.30;99.90
48988;DHT22;34799;51.440;-2.534;2023-04-19T13:33:46;16.10;99.90
48988;DHT22;34799;51.440;-2.534;2023-04-19T13:36:13;16.20;99.90
48988;DHT22;34799;51.440;-2.534;2023-04-19T13:38:40;15.80;99.90
48988;DHT22;34799;51.440;-2.534;2023-04-19T13:41:07;15.60;99.90
48988;DHT22;34799;51.440;-2.534;2023-04-19T13:43:35;15.50;99.90
48988;DHT22;34799;51.440;-2.534;2023-04-19T13:46:03;15.60;99.90
48988;DHT22;34799;51.440;-2.534;2023-04-19T13:48:30;15.60;99.90
48988;DHT22;34799;51.440;-2.534;2023-04-19T13:50:57;15.40;99.90
48988;DHT22;34799;51.440;-2.534;2023-04-19T13:53:26;15.40;99.90
48988;DHT22;34799;51.440;-2.534;2023-04-19T13:55:53;15.20;99.90
48988;DHT22;34799;51.440;-2.534;2023-04-19T13:58:22;14.90;99.90
48988;DHT22;34799;51.440;-2.534;2023-04-19T14:00:51;14.90;99.90
48988;DHT22;34799;51.440;-2.534;2023-04-19T14:03:18;14.90;99.90
48988;DHT22;34799;51.440;-2.534;2023-04-19T14:05:45;14.80;99.90
48988;DHT22;34799;51.440;-2.534;2023-04-19T14:08:12;14.90;99.90
48988;DHT22;34799;51.440;-2.534;2023-04-19T14:10:41;14.90;99.90
48988;DHT22;34799;51.440;-2.534;2023-04-19T14:13:09;15.00;99.90
48988;DHT22;34799;51.440;-2.534;2023-04-19T14:15:36;15.00;99.90
48988;DHT22;34799;51.440;-2.534;2023-04-19T14:18:03;15.00;99.90
48988;DHT22;34799;51.440;-2.534;2023-04-19T14:20:30;15.00;99.90
48988;DHT22;34799;51.440;-2.534;2023-04-19T14:22:57;15.00;99.90
48988;DHT22;34799;51.440;-2.534;2023-04-19T14:25:28;14.90;99.90
48988;DHT22;34799;51.440;-2.534;2023-04-19T14:27:56;15.00;99.90
48988;DHT22;34799;51.440;-2.534;2023-04-19T14:30:23;15.20;99.90
48988;DHT22;34799;51.440;-2.534;2023-04-19T14:32:52;15.60;99.90
48988;DHT22;34799;51.440;-2.534;2023-04-19T14:35:19;15.90;99.90
48988;DHT22;34799;51.440;-2.534;2023-04-19T14:37:46;15.90;99.90
48988;DHT22;34799;51.440;-2.534;2023-04-19T14:40:14;15.80;99.90
48988;DHT22;34799;51.440;-2.534;2023-04-19T14:42:43;15.60;99.90
48988;DHT22;34799;51.440;-2.534;2023-04-19T14:45:10;15.50;99.90
48988;DHT22;34799;51.440;-2.534;2023-04-19T14:47:37;15.40;99.90
48988;DHT22;34799;51.440;-2.534;2023-04-19T14:50:05;15.50;99.90
48988;DHT22;34799;51.440;-2.534;2023-04-19T14:52:34;15.40;99.90
48988;DHT22;34799;51.440;-2.534;2023-04-19T14:55:01;15.40;99.90
48988;DHT22;34799;51.440;-2.534;2023-04-19T14:57:28;15.30;99.90
48988;DHT22;34799;51.440;-2.534;2023-04-19T14:59:56;15.50;99.90
48988;DHT22;34799;51.440;-2.534;2023-04-19T15:02:24;15.40;99.90
48988;DHT22;34799;51.440;-2.534;2023-04-19T15:04:51;15.40;99.90
48988;DHT22;34799;51.440;-2.534;2023-04-19T15:07:20;15.30;99.90
48988;DHT22;34799;51.440;-2.534;2023-04-19T15:09:48;15.30;99.90
48988;DHT22;34799;51.440;-2.534;2023-04-19T15:12:15;15.30;99.90
48988;DHT22;34799;51.440;-2.534;2023-04-19T15:14:42;15.30;99.90
48988;DHT22;34799;51.440;-2.534;2023-04-19T15:17:09;15.40;99.90
48988;DHT22;34799;51.440;-2.534;2023-04-19T15:19:37;15.50;99.90
48988;DHT22;34799;51.440;-2.534;2023-04-19T15:22:06;15.60;99.90
48988;DHT22;34799;51.440;-2.534;2023-04-19T15:24:33;15.60;99.90
48988;DHT22;34799;51.440;-2.534;2023-04-19T15:27:01;15.60;99.90
48988;DHT22;34799;51.440;-2.534;2023-04-19T15:29:28;15.60;99.90
48988;DHT22;34799;51.440;-2.534;2023-04-19T15:31:56;15.60;99.90
48988;DHT22;34799;51.440;-2.534;2023-04-19T15:34:23;15.50;99.90
48988;DHT22;34799;51.440;-2.534;2023-04-19T15:36:52;15.50;99.90
48988;DHT22;34799;51.440;-2.534;2023-04-19T15:39:20;15.70;99.90
48988;DHT22;34799;51.440;-2.534;2023-04-19T15:41:47;15.80;99.90
48988;DHT22;34799;51.440;-2.534;2023-04-19T15:44:14;16.00;99.90
48988;DHT22;34799;51.440;-2.534;2023-04-19T15:46:41;16.20;99.90